AirNav   Bose ProFlight Aviation Headset
 
 1651 users online  

2NK2 Cove Neck Heliport
Cove Neck, New York, USA

GOING TO COVE NECK?


FAA INFORMATION EFFECTIVE 19 JULY 2018

Location

FAA Identifier: 2NK2
Lat/Long: 40-53-01.3540N / 073-29-28.4400W
40-53.022567N / 073-29.474000W
40.8837094 / -73.4912333
(estimated)
Elevation: 10 ft. / 3 m (estimated)
Variation: 13W (1985)
From city: 2 miles NE of COVE NECK, NY
Time zone: UTC -4 (UTC -5 during Standard Time)
Zip code: 11771

Heliport Operations

Heliport use: Private use. Permission required prior to landing
Activation date: 06/1987
Control tower: no
ARTCC: NEW YORK CENTER
FSS: NEW YORK FLIGHT SERVICE STATION
Attendance: UNATNDD
Segmented circle: no

Heliport Communications

WX ASOS at FRG (10 nm S): PHONE 631-752-8129
WX ASOS at HPN (15 nm NW): PHONE 914-288-0216
WX ASOS at LGA (18 nm W): PHONE 718-672-6317
WX ASOS at ISP (19 nm E): PHONE 631-471-0131
WX ASOS at JFK (20 nm SW): PHONE 718-656-0956

Nearby radio navigation aids

VOR radial/distance  VOR name  Freq  Var
DPKr315/10.1DEER PARK VOR/DME117.7012W
LGAr083/18.2LA GUARDIA VOR/DME113.1012W
JFKr052/19.7KENNEDY VOR/DME115.9012W
BDRr237/23.5BRIDGEPORT VOR/DME108.8012W
CMKr182/24.1CARMEL VOR/DME116.6012W
CRIr059/24.5CANARSIE VOR/DME112.3011W
TEBr096/26.0TETERBORO VOR/DME108.4011W
CCCr278/31.5CALVERTON VOR/DME117.2013W
HVNr243/35.6NEW HAVEN VOR/DME109.8013W

 
NDB name  Hdg/Dist  Freq  Var  ID
FRIKK010/6.440714WFR ..-. .-.
BABYLON353/13.627514WBBN -... -... -.
BRIDGE055/26.041412WOGY --- --. -.--
CLERA224/34.536214WJWE .--- .-- .

Heliport Services

Runway Information

Helipad H1

Dimensions: 125 x 125 ft. / 38 x 38 m
Surface: turf
Traffic pattern: leftleft

Heliport Ownership and Management from official FAA records

Ownership: Privately-owned
Owner: BARRY YAMPOL
297 COVE NECK ROAD
OYSTER BAY, NY 11771

Instrument Procedures

There are no published instrument procedures at 2NK2.

Some nearby airports with instrument procedures:

KFRG - Republic Airport (10 nm S)
KHPN - Westchester County Airport (15 nm NW)
KLGA - LaGuardia Airport (18 nm W)
KISP - Long Island Mac Arthur Airport (19 nm E)
KJFK - John F Kennedy International Airport (20 nm SW)
 
Loc | Ops | Rwys | IFR | FBO | Links
Com | Nav | Svcs | Stats | Notes


 
Area around 2NK2 (Cove Neck Heliport)
 
Road maps at: MapQuest Bing Google
 
Aerial photo
No photo
 
Sectional chart

 
Airport distance calculator
Flying to Cove Neck Heliport? Find the distance to fly.

From to 2NK2

Sunrise and sunset
Times for 14-Aug-2018
 Local
(UTC-4)
 Zulu
(UTC)
Morning civil twilight05:3409:34
Sunrise06:0410:04
Sunset19:5323:53
Evening civil twilight20:2300:23

Current date and time
Zulu (UTC)  14-Aug-2018 20:04:36
Local (UTC-4)  14-Aug-2018 16:04:36
 
METAR
KFRG 
10nm S 
141953Z 21011KT 10SM FEW027 27/21 A2983 RMK AO2 LTG DSNT W SLP099 T02670206
KHPN 
14nm NW 
141856Z 19007KT 10SM SCT040 BKN050 27/19 A2983 RMK AO2 LTG DSNT W-N SLP094 T02720194
KISP 
18nm E 
141923Z 23012KT 10SM SCT022 SCT250 27/21 A2984 RMK AO2 T02720206
KLGA 
19nm W 
141951Z VRB06G20KT 3SM R04/3000VP6000FT +TSRA FEW017 BKN036CB BKN055 23/19 A2983 RMK AO2 LTG DSNT SW RAB37 TSB20 SLP100 FRQ LTGICCG OHD-W-N TS OHD-W-N MOV NE P0020 T02280194
KJFK 
20nm SW 
141951Z 19013KT 10SM VCTS FEW020 SCT040CB SCT250 28/22 A2983 RMK AO2 LTG DSNT SW-N SLP100 OCNL LTGCG SW-NW CB SW-NW MOV E VCSH SW-NW T02780217
TAF
KHPN 
14nm NW 
141732Z 1418/1518 17007KT P6SM SHRA BKN035 TEMPO 1419/1423 4SM TSRA BKN025CB FM150100 24006KT P6SM VCSH SCT040 BKN100 FM150600 30005KT P6SM SCT050 BKN250 FM151400 29007KT P6SM SCT050 SCT250 AMD NOT SKED
KISP 
18nm E 
141732Z 1418/1518 18010KT P6SM SCT040 SCT150 FM142100 19010KT P6SM SHRA SCT040 TEMPO 1422/1424 TSRA BKN040CB FM150100 23008KT P6SM VCSH SCT040 BKN100 FM150800 28008KT P6SM SCT050 BKN250 FM151400 28010KT P6SM SCT050 SCT250
KLGA 
19nm W 
141732Z 1418/1524 20010G17KT P6SM SHRA BKN035 TEMPO 1419/1423 3SM TSRA BKN025CB FM150100 23012KT P6SM VCSH SCT040 BKN100 FM150600 28010KT P6SM SCT050 BKN250 FM151400 28008KT P6SM SCT050 SCT250 FM151900 25010KT P6SM SCT250
KJFK 
20nm SW 
141732Z 1418/1524 20012KT P6SM SHRA BKN040 TEMPO 1419/1423 3SM TSRA BKN025CB FM150100 23012KT P6SM VCSH SCT040 BKN100 FM150600 28011KT P6SM SCT050 BKN250 FM151400 28012KT P6SM SCT050 SCT250 FM151900 25012KT P6SM SCT250
NOTAMs
Click for the latest NOTAMs
NOTAMs are issued by the DoD/FAA and will open in a separate window not controlled by AirNav.

 

 
 

Would you like to see your business listed on this page?

 If your business provides an interesting product or service to pilots, flight crews, aircraft, or users of the Cove Neck Heliport, you should consider listing it here.  To start the listing process, click on the button below
 
Add a business
 

Other Pages about Cove Neck Heliport

Update a link
 
Copyright © AirNav, LLC. All rights reserved. Privacy Policy  Contact